Time;durP1;ratioP1;P1;durP2;ratioP2;P2;SDS_P1;SDS_P2;PMS_P1;PMS_P2;Temp;Humidity;BMP_temperature;BMP_pressure;BME280_temperature;BME280_humidity;BME280_pressure;Samples;Min_cycle;Max_cycle;Signal;HPM_P1;HPM_P2
2022/06/11 00:00:17;;;;;;;3.63;1.75;;;21.20;40.80;;;19.45;43.11;101769.03;12239428;19;20322;-78
2022/06/11 00:04:39;;;;;;;3.95;1.95;;;21.20;40.90;;;19.36;43.32;101748.56;12238081;19;20019;-78
2022/06/11 00:08:40;;;;;;;1.60;1.48;;;21.30;41.30;;;19.28;43.42;101748.28;12242019;19;20018;-78
2022/06/11 00:12:42;;;;;;;4.35;2.55;;;21.10;41.00;;;19.36;43.44;101755.63;12251625;19;20031;-79
2022/06/11 00:16:44;;;;;;;3.45;2.60;;;21.20;41.30;;;19.32;43.36;101749.72;12241308;19;20010;-78
2022/06/11 00:20:46;;;;;;;4.00;2.92;;;21.10;41.30;;;18.78;43.75;101661.09;12249084;19;20376;-79
2022/06/11 00:24:49;;;;;;;3.45;2.45;;;21.10;41.40;;;19.36;43.69;101761.78;12250451;19;20031;-79
2022/06/11 00:28:51;;;;;;;2.35;2.15;;;21.40;41.60;;;19.27;43.73;101746.59;12245579;19;20360;-78
2022/06/11 00:32:55;;;;;;;4.57;2.05;;;21.10;41.60;;;19.20;43.88;101730.31;12249950;19;20011;-78
2022/06/11 00:36:57;;;;;;;3.42;2.20;;;21.10;41.60;;;19.34;43.81;101758.41;12243604;19;20015;-78
2022/06/11 00:40:59;;;;;;;4.72;2.67;;;21.10;41.70;;;19.18;43.94;101728.75;12250625;19;20539;-78
2022/06/11 00:45:21;;;;;;;2.75;2.22;;;21.10;41.90;;;19.41;44.29;101769.38;12250446;19;20014;-78
2022/06/11 00:49:31;;;;;;;4.15;2.20;;;21.10;42.10;;;19.38;44.29;101756.38;12248293;19;20086;-78
2022/06/11 00:53:43;;;;;;;6.43;2.05;;;21.10;42.10;;;19.32;44.56;101747.09;12248648;19;20015;-79
2022/06/11 00:57:55;;;;;;;2.20;2.00;;;21.10;42.20;;;19.36;45.04;101745.03;12241528;19;20499;-79
2022/06/11 01:01:57;;;;;;;3.28;2.42;;;21.10;42.30;;;19.36;44.65;101750.34;12249496;19;20412;-78
2022/06/11 01:06:42;;;;;;;3.38;2.40;;;21.10;42.40;;;19.33;44.57;101734.69;12241590;19;20033;-78
2022/06/11 01:11:15;;;;;;;4.97;2.45;;;21.10;42.60;;;19.40;44.88;101747.34;12248401;19;20021;-78
2022/06/11 01:15:31;;;;;;;4.53;2.35;;;21.10;42.50;;;19.44;45.19;101743.50;12236650;19;20017;-79
2022/06/11 01:20:23;;;;;;;3.92;2.78;;;21.10;42.70;;;19.36;44.77;101716.75;12246463;19;20468;-78
2022/06/11 01:24:55;;;;;;;3.20;2.25;;;21.20;42.70;;;19.49;45.21;101735.19;12246034;19;20791;-78
2022/06/11 01:29:35;;;;;;;2.08;1.77;;;21.20;42.90;;;19.46;45.17;101736.28;12248790;19;20095;-78
2022/06/11 01:34:03;;;;;;;2.75;2.13;;;21.20;43.00;;;19.42;45.55;101729.53;12246187;19;20038;-78
2022/06/11 01:38:37;;;;;;;2.65;1.90;;;21.20;42.90;;;19.37;45.21;101713.16;12242784;19;20031;-78
2022/06/11 01:42:54;;;;;;;2.80;2.22;;;21.20;42.90;;;19.16;45.33;101675.06;12246838;19;20006;-78
2022/06/11 01:46:58;;;;;;;2.13;1.92;;;21.20;43.00;;;19.36;45.55;101708.81;12244389;19;20120;-78
2022/06/11 01:51:38;;;;;;;4.72;2.58;;;21.20;43.10;;;19.50;45.57;101728.13;12245514;19;20020;-78
2022/06/11 01:55:44;;;;;;;2.90;2.30;;;21.20;43.20;;;19.40;45.86;101709.41;12245385;19;20042;-78
2022/06/11 02:00:19;;;;;;;5.07;2.63;;;21.20;43.20;;;19.55;45.45;101733.88;12243535;19;20011;-78
2022/06/11 02:04:45;;;;;;;2.65;2.20;;;21.20;43.20;;;19.57;45.95;101731.94;12244006;19;20018;-79
2022/06/11 02:09:39;;;;;;;2.75;2.22;;;21.20;43.50;;;19.56;45.69;101727.63;12244710;19;20036;-78
2022/06/11 02:13:52;;;;;;;2.10;1.88;;;21.20;43.50;;;19.37;46.09;101707.84;12238461;19;20488;-79
2022/06/11 02:18:10;;;;;;;3.30;2.05;;;21.30;43.60;;;19.44;46.41;101718.81;12240774;19;20487;-78
2022/06/11 02:22:39;;;;;;;2.28;2.10;;;21.30;43.50;;;19.33;46.03;101702.88;12244861;19;20018;-79
2022/06/11 02:26:46;;;;;;;2.45;1.92;;;21.20;43.70;;;19.40;46.29;101726.16;12240503;19;20015;-79
2022/06/11 02:30:52;;;;;;;2.50;1.98;;;21.20;43.70;;;19.07;46.04;101681.06;12242286;19;20014;-78
2022/06/11 02:35:00;;;;;;;2.00;1.90;;;21.10;43.40;;;19.38;46.26;101732.53;12241134;19;20078;-78
2022/06/11 02:39:04;;;;;;;3.72;2.20;;;21.20;43.50;;;19.23;46.33;101708.91;12243402;19;20360;-78
2022/06/11 02:43:06;;;;;;;7.35;3.47;;;21.20;43.90;;;19.40;46.38;101733.25;12242349;19;20026;-78
2022/06/11 02:47:10;;;;;;;3.10;2.17;;;21.20;43.90;;;19.41;46.64;101748.19;12237909;19;20476;-78
2022/06/11 02:51:12;;;;;;;3.30;2.38;;;21.20;43.90;;;19.30;46.67;101732.25;12242952;19;20342;-78
2022/06/11 02:55:14;;;;;;;3.55;2.50;;;21.10;43.90;;;19.29;46.54;101735.88;12240547;19;20026;-78
2022/06/11 02:59:17;;;;;;;2.80;2.28;;;21.10;43.90;;;19.26;46.91;101729.00;12243098;19;20018;-79
2022/06/11 03:03:22;;;;;;;3.03;2.72;;;21.10;44.10;;;19.37;46.90;101750.22;12241450;19;20018;-79
2022/06/11 03:07:24;;;;;;;2.42;2.22;;;21.10;44.30;;;19.17;46.88;101721.75;12239013;19;20022;-78
2022/06/11 03:11:27;;;;;;;4.50;2.28;;;21.30;44.40;;;19.26;47.24;101742.25;12241232;19;20017;-78
2022/06/11 03:15:29;;;;;;;2.97;2.28;;;21.20;44.50;;;19.29;47.11;101744.66;12240137;19;20018;-79
2022/06/11 03:19:31;;;;;;;6.15;2.38;;;21.10;44.30;;;19.22;47.18;101749.56;12238667;19;20021;-78
2022/06/11 03:23:33;;;;;;;3.58;2.28;;;21.10;44.50;;;19.12;47.28;101745.09;12238358;19;20020;-78
2022/06/11 03:27:38;;;;;;;2.65;2.22;;;21.00;44.60;;;19.01;47.30;101757.34;12236757;19;20478;-79
2022/06/11 03:31:39;;;;;;;3.78;2.30;;;21.30;44.80;;;18.86;47.46;101741.75;12241431;19;20083;-78
2022/06/11 03:35:44;;;;;;;2.33;2.13;;;20.90;44.70;;;18.93;47.60;101759.72;12238813;19;20103;-79
2022/06/11 03:39:45;;;;;;;2.40;2.03;;;21.00;45.00;;;18.92;47.53;101754.53;12239447;19;20014;-78
2022/06/11 03:43:49;;;;;;;2.53;2.30;;;20.80;45.10;;;18.81;47.97;101733.31;12240589;19;20030;-78
2022/06/11 03:47:50;;;;;;;5.47;2.72;;;20.80;45.30;;;18.91;47.98;101766.91;12233830;19;20111;-78
2022/06/11 03:51:52;;;;;;;5.88;2.38;;;20.70;45.40;;;18.90;47.81;101754.66;12239211;19;20018;-78
2022/06/11 03:55:55;;;;;;;2.67;2.25;;;20.70;45.50;;;18.94;48.03;101764.03;12235356;19;20019;-79
2022/06/11 03:59:57;;;;;;;2.40;2.20;;;20.70;45.70;;;19.00;48.07;101775.97;12240957;19;20007;-78
2022/06/11 04:04:04;;;;;;;2.30;2.17;;;20.70;45.70;;;18.97;48.29;101765.63;12237491;19;20022;-78
2022/06/11 04:08:06;;;;;;;3.45;2.28;;;20.80;45.90;;;18.91;48.33;101761.63;12234704;19;20346;-78
2022/06/11 04:12:15;;;;;;;2.50;2.30;;;20.80;45.70;;;19.01;48.12;101773.22;12236465;19;20018;-78
2022/06/11 04:16:30;;;;;;;1.92;1.83;;;20.90;45.90;;;19.04;48.45;101766.88;12231132;19;20496;-78
2022/06/11 04:20:32;;;;;;;2.85;2.13;;;20.90;46.00;;;18.82;48.35;101719.09;12238168;19;20098;-78
2022/06/11 04:24:35;;;;;;;2.53;2.33;;;20.90;45.80;;;19.23;48.22;101772.47;12238081;19;20022;-78
2022/06/11 04:28:38;;;;;;;3.60;2.15;;;21.20;46.00;;;19.32;48.34;101778.03;12234404;19;20019;-78
2022/06/11 04:32:40;;;;;;;3.42;2.58;;;21.00;46.00;;;19.25;48.46;101761.75;12226839;19;20022;-79
2022/06/11 04:36:45;;;;;;;2.50;2.30;;;21.00;46.10;;;19.38;48.59;101774.91;12229363;19;20046;-78
2022/06/11 04:40:47;;;;;;;2.90;2.10;;;21.10;46.10;;;19.07;48.58;101728.72;12219616;19;20019;-78
2022/06/11 04:44:49;;;;;;;2.53;2.22;;;21.20;46.20;;;19.12;48.74;101721.25;12232440;19;20103;-78
2022/06/11 04:48:51;;;;;;;2.72;2.30;;;21.20;46.20;;;19.29;48.85;101749.13;12230441;19;20339;-78
2022/06/11 04:52:52;;;;;;;2.95;2.58;;;21.30;46.40;;;19.51;49.00;101772.19;12233624;19;20021;-78
2022/06/11 04:56:54;;;;;;;2.33;2.10;;;21.30;46.50;;;19.49;48.74;101752.91;12244422;19;20048;-78
2022/06/11 05:00:56;;;;;;;3.00;2.38;;;21.40;46.40;;;19.58;48.66;101755.69;12245005;19;20033;-79
2022/06/11 05:04:58;;;;;;;2.92;2.38;;;21.40;46.50;;;19.70;48.88;101769.84;12248210;19;20021;-78
2022/06/11 05:09:00;;;;;;;2.40;2.20;;;21.50;46.70;;;19.58;48.92;101744.25;12243321;19;20009;-78
2022/06/11 05:13:04;;;;;;;5.35;2.78;;;21.60;46.80;;;19.69;48.92;101746.94;12244915;19;20010;-79
2022/06/11 05:17:06;;;;;;;3.13;2.42;;;21.60;46.80;;;19.83;49.10;101761.78;12236605;19;20014;-79
2022/06/11 05:21:08;;;;;;;2.83;2.63;;;21.70;46.80;;;20.11;48.92;101794.91;12241990;19;20019;-79
2022/06/11 05:25:12;;;;;;;5.40;2.70;;;21.80;46.70;;;20.22;49.24;101792.25;12246332;19;20010;-79
2022/06/11 05:29:25;;;;;;;3.22;2.95;;;21.80;47.10;;;20.16;49.62;101768.88;12244722;19;20095;-79
2022/06/11 05:33:28;;;;;;;5.45;2.45;;;22.00;47.40;;;20.33;48.96;101786.09;12246439;19;20018;-79
2022/06/11 05:37:30;;;;;;;3.50;2.65;;;22.10;46.90;;;20.40;49.46;101778.53;12240002;19;20077;-80
2022/06/11 05:41:32;;;;;;;3.63;2.63;;;22.20;47.10;;;20.42;49.17;101761.50;12247497;19;20022;-81
2022/06/11 05:45:58;;;;;;;7.45;3.20;;;22.20;47.00;;;20.77;49.27;101809.13;12241247;19;20010;-78
2022/06/11 05:50:01;;;;;;;3.55;2.55;;;22.30;47.30;;;20.74;49.21;101782.00;12246787;19;20013;-78
2022/06/11 05:54:07;;;;;;;2.03;1.92;;;22.40;46.60;;;20.96;49.09;101792.53;12245356;19;20371;-79
2022/06/11 05:58:16;;;;;;;2.25;2.05;;;22.50;46.20;;;20.72;49.00;101746.75;12241251;19;20018;-78
2022/06/11 06:02:22;;;;;;;2.70;2.05;;;22.70;45.90;;;21.11;48.28;101794.88;12243667;19;20027;-78
2022/06/11 06:06:24;;;;;;;3.08;1.80;;;22.80;45.20;;;21.20;48.23;101796.78;12239595;19;20086;-78
2022/06/11 06:10:26;;;;;;;4.65;1.92;;;22.90;45.10;;;21.34;48.18;101798.28;12246418;19;20025;-78
2022/06/11 06:14:27;;;;;;;3.17;1.80;;;22.90;45.20;;;21.20;48.53;101756.94;12242496;19;20010;-78
2022/06/11 06:18:29;;;;;;;2.38;1.65;;;23.00;45.40;;;21.73;48.05;101803.88;12241137;19;20018;-78
2022/06/11 06:22:31;;;;;;;4.30;1.63;;;23.20;44.80;;;21.97;47.73;101817.72;12244403;19;20015;-78
2022/06/11 06:26:33;;;;;;;2.38;1.35;;;23.40;44.30;;;22.06;47.47;101795.66;12239275;19;20018;-78
2022/06/11 06:30:35;;;;;;;1.48;1.38;;;23.60;44.00;;;22.26;47.19;101806.41;12244081;19;20078;-78
2022/06/11 06:34:37;;;;;;;2.15;1.50;;;23.70;43.90;;;22.33;47.21;101798.72;12241726;19;20025;-78
2022/06/11 06:38:40;;;;;;;1.30;1.20;;;23.90;43.50;;;22.48;47.24;101803.53;12242807;19;20017;-78
2022/06/11 06:42:42;;;;;;;2.00;1.30;;;24.00;43.20;;;22.64;46.85;101812.84;12241520;19;20087;-78
2022/06/11 06:46:44;;;;;;;1.33;1.23;;;24.30;43.00;;;22.68;46.96;101798.25;12239169;19;20050;-77
2022/06/11 06:50:46;;;;;;;2.47;1.33;;;24.50;42.90;;;22.75;46.41;101794.06;12241937;19;20410;-78
2022/06/11 06:54:49;;;;;;;2.25;1.48;;;24.40;42.80;;;22.89;46.63;101801.66;12240883;19;20160;-78
2022/06/11 06:58:51;;;;;;;2.80;1.40;;;24.50;42.50;;;22.97;46.11;101795.66;12239794;19;20540;-78
2022/06/11 07:02:53;;;;;;;3.15;1.40;;;24.60;42.50;;;23.10;46.05;101792.72;12240868;19;20018;-78
2022/06/11 07:06:55;;;;;;;1.33;1.23;;;24.70;42.40;;;23.27;46.08;101794.66;12238941;19;20082;-78
2022/06/11 07:10:57;;;;;;;2.55;1.58;;;24.80;42.60;;;23.51;46.23;101807.56;12238271;19;20019;-78
2022/06/11 07:14:59;;;;;;;2.35;1.20;;;25.20;42.50;;;23.55;45.79;101781.47;12238680;19;20536;-78
2022/06/11 07:19:09;;;;;;;2.08;1.52;;;25.10;42.10;;;23.71;45.33;101781.72;12238370;19;20132;-78
2022/06/11 07:23:24;;;;;;;1.60;1.00;;;25.30;41.80;;;23.96;45.38;101798.06;12239221;19;20010;-78
2022/06/11 07:27:31;;;;;;;2.00;1.27;;;25.40;41.60;;;24.08;45.34;101787.06;12238110;19;20018;-78
2022/06/11 07:31:33;;;;;;;2.08;1.40;;;25.60;41.50;;;24.19;45.12;101783.34;12237575;19;20029;-78
2022/06/11 07:35:36;;;;;;;2.33;1.25;;;25.70;41.50;;;24.03;44.89;101729.78;12239687;19;20476;-77
2022/06/11 07:39:38;;;;;;;1.98;1.30;;;25.90;41.10;;;24.46;44.52;101777.19;12238819;19;20037;-78
2022/06/11 07:43:40;;;;;;;2.13;1.10;;;26.00;41.00;;;24.60;44.75;101785.69;12237764;19;20041;-78
2022/06/11 07:47:54;;;;;;;4.38;1.33;;;26.10;40.90;;;24.77;44.47;101795.56;12236274;19;20784;-78
2022/06/11 07:51:56;;;;;;;2.15;1.50;;;26.20;40.70;;;24.77;44.18;101779.53;12238023;19;20707;-78
2022/06/11 07:55:58;;;;;;;3.42;1.30;;;26.40;40.50;;;24.88;44.07;101773.13;12236801;19;20014;-78
2022/06/11 08:00:00;;;;;;;1.50;1.17;;;26.60;40.70;;;25.03;43.96;101776.09;12240814;19;20002;-78
2022/06/11 08:04:02;;;;;;;2.80;1.05;;;26.60;40.40;;;25.21;44.15;101776.94;12238313;19;20006;-78
2022/06/11 08:08:08;;;;;;;2.47;1.20;;;26.70;40.20;;;25.14;43.63;101755.31;12234828;19;20011;-78
2022/06/11 08:12:10;;;;;;;2.05;1.27;;;26.80;40.20;;;25.17;43.90;101733.66;12236052;19;20453;-79
2022/06/11 08:16:13;;;;;;;1.40;1.20;;;26.90;40.20;;;25.51;43.69;101767.63;12237705;19;20014;-78
2022/06/11 08:20:21;;;;;;;3.75;1.52;;;27.10;40.00;;;25.83;43.28;101782.22;12236367;19;20002;-78
2022/06/11 08:24:23;;;;;;;1.60;0.95;;;27.20;39.90;;;25.97;43.50;101778.97;12239074;19;20025;-78
2022/06/11 08:28:26;;;;;;;2.75;1.25;;;27.50;39.90;;;25.98;42.88;101759.25;12235191;19;20082;-78
2022/06/11 08:32:28;;;;;;;1.73;1.08;;;27.50;39.50;;;26.08;42.84;101759.09;12252104;19;20018;-78
2022/06/11 08:36:30;;;;;;;4.13;1.50;;;27.80;39.70;;;26.32;42.54;101777.09;12246007;19;20480;-78
2022/06/11 08:40:41;;;;;;;1.08;1.00;;;27.80;39.10;;;26.42;42.23;101777.81;12250900;19;20812;-78
2022/06/11 08:44:43;;;;;;;1.75;1.02;;;27.90;38.60;;;26.52;42.27;101766.13;12246501;19;20019;-78
2022/06/11 08:49:09;;;;;;;1.30;0.95;;;28.10;38.80;;;26.74;41.79;101786.94;12244838;19;20018;-79
2022/06/11 08:53:12;;;;;;;2.53;1.33;;;28.20;38.80;;;26.73;41.58;101765.66;12248582;19;20357;-78
2022/06/11 08:57:43;;;;;;;2.08;0.98;;;28.30;38.30;;;26.98;41.66;101778.09;12244165;19;20007;-78
2022/06/11 09:02:31;;;;;;;1.80;1.02;;;28.40;38.30;;;27.10;41.42;101778.59;12245971;19;20037;-79
2022/06/11 09:07:17;;;;;;;3.30;1.00;;;28.50;38.30;;;27.11;41.49;101767.72;12240427;19;20010;-78
2022/06/11 09:11:45;;;;;;;1.73;0.90;;;28.60;38.30;;;27.35;41.04;101769.56;12249463;19;20077;-77
2022/06/11 09:15:46;;;;;;;1.83;1.10;;;28.80;37.90;;;27.49;41.15;101772.53;12244609;19;20464;-78
2022/06/11 09:20:27;;;;;;;3.55;1.00;;;28.90;37.80;;;27.48;40.62;101758.31;12248538;19;20010;-78
2022/06/11 09:25:03;;;;;;;2.42;0.98;;;29.00;37.70;;;27.65;40.62;101769.00;12245550;19;20015;-78
2022/06/11 09:29:29;;;;;;;0.80;0.80;;;29.10;37.60;;;27.71;40.37;101768.34;12247995;19;20035;-78
2022/06/11 09:34:04;;;;;;;1.35;0.90;;;29.10;37.30;;;27.77;40.67;101767.63;12244490;19;20017;-78
2022/06/11 09:38:33;;;;;;;1.53;1.10;;;29.20;37.40;;;27.88;40.13;101769.13;12241433;19;20035;-79
2022/06/11 09:43:03;;;;;;;1.13;0.98;;;29.30;37.00;;;27.94;39.87;101763.91;12245055;19;20043;-80
2022/06/11 09:47:53;;;;;;;2.05;0.90;;;29.40;37.00;;;27.92;39.58;101744.47;12241930;19;20011;-78
2022/06/11 09:52:22;;;;;;;2.05;1.20;;;29.50;36.90;;;28.08;39.47;101759.66;12244043;19;20010;-78
2022/06/11 09:56:36;;;;;;;2.88;1.23;;;29.50;36.60;;;28.19;39.43;101753.91;12242981;19;20546;-78
2022/06/11 10:00:46;;;;;;;0.88;0.80;;;29.60;37.00;;;28.22;39.29;101734.75;12247665;19;20014;-78
2022/06/11 10:04:50;;;;;;;1.23;0.73;;;29.70;36.50;;;28.40;39.13;101741.69;12223169;19;20014;-78
2022/06/11 10:09:01;;;;;;;1.13;0.87;;;29.80;36.40;;;28.54;38.85;101761.63;12237757;19;20115;-79
2022/06/11 10:13:36;;;;;;;1.88;1.05;;;29.90;36.20;;;28.59;38.98;101751.16;12235419;19;20503;-78
2022/06/11 10:17:55;;;;;;;1.23;1.10;;;30.00;36.00;;;28.61;38.62;101747.28;12234747;19;20011;-80
2022/06/11 10:22:38;;;;;;;2.15;1.15;;;30.10;36.10;;;28.59;38.70;101741.25;12237896;19;20022;-77
2022/06/11 10:26:56;;;;;;;1.05;0.70;;;30.10;36.10;;;28.73;38.24;101744.19;12235483;19;20659;-78
2022/06/11 10:31:22;;;;;;;4.57;0.95;;;30.10;35.70;;;28.76;38.22;101725.84;12238571;19;20018;-77
2022/06/11 10:35:30;;;;;;;1.58;1.00;;;30.20;35.80;;;28.89;38.05;101711.78;12237288;19;20019;-76
2022/06/11 10:40:11;;;;;;;1.05;0.85;;;30.40;35.90;;;29.02;37.87;101720.06;12238874;19;20018;-79
2022/06/11 10:44:35;;;;;;;2.35;1.08;;;30.50;35.80;;;29.19;37.51;101726.19;12230207;19;20347;-78
2022/06/11 10:48:37;;;;;;;1.70;1.23;;;30.60;35.60;;;29.16;37.95;101723.84;12234702;19;20039;-81
2022/06/11 10:52:44;;;;;;;1.15;1.00;;;30.60;35.60;;;29.26;37.34;101712.81;12235516;19;20014;-80
2022/06/11 10:56:54;;;;;;;2.53;1.00;;;30.70;35.00;;;29.27;37.05;101711.78;12236433;19;20022;-80
2022/06/11 11:01:22;;;;;;;1.08;0.88;;;30.80;34.80;;;29.28;36.99;101721.56;12238460;19;20033;-80
2022/06/11 11:05:24;;;;;;;1.20;1.10;;;30.70;34.80;;;29.15;37.22;101697.13;12239049;19;20015;-81
2022/06/11 11:09:26;;;;;;;1.98;0.80;;;30.80;34.90;;;29.17;36.84;101714.75;12236374;19;20340;-80
2022/06/11 11:13:46;;;;;;;1.17;0.80;;;30.70;34.40;;;29.19;36.48;101719.94;12238328;19;20347;-77
2022/06/11 11:18:08;;;;;;;0.70;0.60;;;30.70;34.20;;;29.03;36.14;101694.88;12234084;19;20049;-80
2022/06/11 11:22:18;;;;;;;0.75;0.75;;;30.70;34.60;;;29.16;36.31;101720.31;12239416;19;20006;-77
2022/06/11 11:26:29;;;;;;;0.93;0.57;;;30.70;34.40;;;29.27;36.32;101707.28;12234517;19;20537;-80
2022/06/11 11:30:40;;;;;;;1.83;0.90;;;30.70;34.20;;;29.34;35.91;101694.72;12238316;19;20023;-78
2022/06/11 11:34:48;;;;;;;1.77;0.80;;;30.70;34.00;;;29.42;35.52;101696.50;12234317;19;20019;-79
2022/06/11 11:39:18;;;;;;;0.93;0.80;;;30.80;33.80;;;29.31;35.76;101675.44;12236436;19;20086;-77
2022/06/11 11:43:22;;;;;;;1.08;0.75;;;30.90;34.20;;;29.49;35.55;101700.13;12235240;19;20078;-79
2022/06/11 11:47:34;;;;;;;1.38;0.80;;;30.90;33.90;;;29.54;35.58;101692.34;12235308;19;20017;-79
2022/06/11 11:51:40;;;;;;;1.40;0.95;;;30.90;34.40;;;29.56;35.58;101684.88;12235420;19;20484;-78
2022/06/11 11:55:53;;;;;;;1.38;0.80;;;31.00;33.80;;;29.64;35.15;101694.75;12234496;19;20028;-78
2022/06/11 12:00:24;;;;;;;0.70;0.70;;;31.00;33.70;;;29.66;35.26;101702.66;12233020;19;20011;-78
2022/06/11 12:04:35;;;;;;;1.17;1.00;;;31.10;33.80;;;29.61;34.86;101680.81;12235292;19;20124;-78
2022/06/11 12:08:52;;;;;;;0.80;0.80;;;31.10;33.50;;;29.65;34.89;101682.13;12227450;19;20035;-78
2022/06/11 12:12:56;;;;;;;2.05;1.00;;;31.10;33.60;;;29.74;34.90;101678.31;12235953;19;20689;-77
2022/06/11 12:17:25;;;;;;;1.02;0.57;;;31.30;33.70;;;29.88;35.00;101687.41;12229198;19;20026;-78
2022/06/11 12:21:38;;;;;;;0.73;0.70;;;31.30;33.60;;;30.05;34.63;101696.91;12239280;19;20022;-77
2022/06/11 12:26:08;;;;;;;1.08;0.70;;;31.40;33.10;;;30.03;34.18;101673.88;12230093;19;20026;-78
2022/06/11 12:30:26;;;;;;;0.50;0.50;;;31.50;33.30;;;30.23;34.27;101684.91;12234437;19;20487;-78
2022/06/11 12:34:31;;;;;;;1.20;0.80;;;31.50;32.90;;;30.36;34.19;101688.59;12231748;19;20014;-81
2022/06/11 12:39:46;;;;;;;1.15;0.70;;;31.70;32.90;;;30.46;33.96;101693.66;12232522;19;20022;-79
2022/06/11 12:44:02;;;;;;;1.15;0.60;;;31.80;33.20;;;30.50;33.79;101688.72;12233607;19;20022;-78
2022/06/11 12:48:47;;;;;;;1.58;0.88;;;31.80;32.90;;;30.57;33.86;101681.50;12228400;19;20022;-78
2022/06/11 12:52:48;;;;;;;0.70;0.70;;;31.90;32.80;;;30.46;33.81;101688.28;12236112;19;20014;-79
2022/06/11 12:57:20;;;;;;;0.70;0.70;;;31.90;32.90;;;30.31;33.74;101677.53;12230484;19;20015;-79
2022/06/11 13:01:48;;;;;;;3.80;1.20;;;31.80;32.50;;;30.23;33.96;101677.66;12235331;19;20105;-79
2022/06/11 13:06:22;;;;;;;1.20;0.80;;;31.80;32.70;;;30.05;33.94;101661.06;12232964;19;20043;-79
2022/06/11 13:10:33;;;;;;;5.28;0.98;;;31.70;33.10;;;30.14;33.85;101684.19;12233539;19;20014;-79
2022/06/11 13:15:25;;;;;;;3.30;1.13;;;31.60;32.80;;;30.05;33.55;101656.50;12233525;19;20376;-79
2022/06/11 13:20:07;;;;;;;0.80;0.70;;;31.60;32.50;;;30.10;33.24;101659.47;12232067;19;20021;-79
2022/06/11 13:24:29;;;;;;;0.77;0.77;;;31.60;32.50;;;30.17;33.36;101692.72;12233586;19;20082;-79
2022/06/11 13:29:06;;;;;;;0.93;0.60;;;31.60;32.70;;;30.18;33.20;101685.47;12228598;19;20488;-78
2022/06/11 13:33:25;;;;;;;0.60;0.50;;;31.60;32.30;;;30.15;33.25;101683.16;12232679;19;20022;-78
2022/06/11 13:38:14;;;;;;;7.18;0.98;;;31.80;32.40;;;29.99;33.15;101657.28;12230675;19;20022;-78
2022/06/11 13:42:30;;;;;;;4.35;1.10;;;31.50;32.50;;;30.09;33.36;101673.13;12231872;19;20921;-78
2022/06/11 13:46:50;;;;;;;1.55;1.15;;;31.50;32.80;;;30.11;33.41;101671.06;12231235;19;20096;-79
2022/06/11 13:51:14;;;;;;;0.85;0.60;;;31.50;33.20;;;30.14;33.68;101665.31;12229560;19;20443;-79
2022/06/11 13:55:22;;;;;;;0.88;0.88;;;31.50;32.90;;;30.07;33.78;101659.00;12232100;19;20022;-78
2022/06/11 14:00:11;;;;;;;1.52;0.95;;;31.50;33.00;;;30.20;33.82;101673.47;12230739;19;20024;-78
2022/06/11 14:04:33;;;;;;;2.25;0.70;;;31.50;33.40;;;30.16;33.52;101672.19;12230339;19;20021;-77
2022/06/11 14:13:53;;;;;;;0.82;0.73;;;31.60;33.30;;;30.04;33.57;101648.63;12229512;19;20102;-77
2022/06/11 14:18:05;;;;;;;1.38;0.90;;;31.50;33.10;;;30.07;33.71;101669.78;12223664;19;20018;-77
2022/06/11 14:22:28;;;;;;;0.85;0.80;;;31.50;33.20;;;29.85;33.71;101653.59;12232180;19;20994;-77
2022/06/11 14:26:48;;;;;;;2.75;0.90;;;31.40;33.40;;;29.78;33.85;101661.56;12224147;19;20042;-77
2022/06/11 14:31:04;;;;;;;2.50;0.95;;;31.30;33.50;;;29.64;33.75;101664.31;12228368;19;20081;-77
2022/06/11 14:35:18;;;;;;;1.98;1.08;;;31.30;33.40;;;29.40;34.00;101643.88;12227401;19;20021;-77
2022/06/11 14:39:39;;;;;;;2.75;1.05;;;31.20;33.60;;;29.43;34.37;101660.47;12226007;19;20041;-78
2022/06/11 14:43:53;;;;;;;1.27;0.80;;;31.00;33.80;;;29.44;34.57;101661.34;12227035;19;20018;-81
2022/06/11 14:47:59;;;;;;;2.15;1.15;;;30.90;33.80;;;29.38;34.59;101644.09;12223943;19;20006;-81
2022/06/11 14:52:04;;;;;;;2.13;1.00;;;30.80;34.00;;;29.56;34.15;101657.13;12228921;19;20082;-81
2022/06/11 14:56:51;;;;;;;1.10;0.80;;;30.90;33.90;;;29.64;34.12;101648.16;12207912;19;20024;-81
2022/06/11 15:01:17;;;;;;;1.00;0.90;;;30.90;33.80;;;29.67;33.93;101645.09;12226663;19;20343;-80
2022/06/11 15:05:45;;;;;;;2.53;1.00;;;31.00;33.60;;;29.64;34.15;101642.78;12226459;19;20018;-81
2022/06/11 15:10:06;;;;;;;0.80;0.80;;;31.00;33.50;;;29.42;34.03;101610.38;12221540;19;20550;-81
2022/06/11 15:14:28;;;;;;;1.67;1.17;;;31.00;33.70;;;29.65;34.09;101628.28;12220480;19;20018;-82
2022/06/11 15:18:47;;;;;;;1.67;0.88;;;31.00;34.00;;;29.75;33.96;101635.03;12229417;19;20024;-81
2022/06/11 15:22:52;;;;;;;1.52;0.90;;;31.10;33.40;;;29.76;33.62;101630.50;12238293;19;20014;-81
2022/06/11 15:26:58;;;;;;;1.88;0.80;;;31.10;33.30;;;29.71;33.65;101612.22;12235329;19;20014;-82
2022/06/11 15:31:09;;;;;;;;;;;31.10;33.20;;;29.89;33.87;101627.09;12235969;19;20017;-82
2022/06/11 15:35:35;;;;;;;1.70;0.70;;;31.10;33.80;;;29.92;33.48;101627.59;12237470;19;19926;-82
2022/06/11 15:39:40;;;;;;;1.25;0.93;;;31.20;33.10;;;29.66;33.54;101576.13;12234694;19;20029;-82
2022/06/11 15:43:53;;;;;;;0.80;0.80;;;31.30;32.80;;;29.79;33.53;101584.34;12236389;19;20020;-82
2022/06/11 15:48:19;;;;;;;1.13;0.82;;;31.30;33.00;;;29.93;33.03;101591.53;12231426;19;20373;-83
2022/06/11 15:52:46;;;;;;;0.82;0.70;;;31.30;32.60;;;30.18;33.12;101601.91;12235941;19;20480;-82
2022/06/11 15:56:48;;;;;;;0.70;0.70;;;31.40;33.00;;;30.04;32.74;101573.19;12233723;19;20015;-83
2022/06/11 16:01:12;;;;;;;1.20;0.70;;;31.50;32.40;;;30.23;32.51;101599.50;12237466;19;20007;-82
2022/06/11 16:05:32;;;;;;;0.50;0.50;;;31.60;32.30;;;30.27;32.42;101611.56;12234920;19;20006;-82
2022/06/11 16:09:38;;;;;;;1.63;0.68;;;31.60;32.10;;;30.17;32.59;101611.03;12237497;19;20487;-82
2022/06/11 16:13:41;;;;;;;1.85;0.85;;;31.60;32.10;;;29.86;32.45;101587.91;12219760;19;20039;-83
2022/06/11 16:17:45;;;;;;;0.70;0.70;;;31.60;32.00;;;29.89;32.27;101611.78;12218868;19;20029;-82
2022/06/11 16:21:59;;;;;;;;;;;31.50;31.70;;;29.87;32.84;101626.50;12221648;19;20511;-82
2022/06/11 16:26:03;;;;;;;0.73;0.73;;;31.40;32.70;;;29.77;32.64;101634.84;12222021;19;19922;-82
2022/06/11 16:30:25;;;;;;;2.33;0.82;;;31.30;32.00;;;29.69;32.39;101626.88;12222810;19;20037;-83
2022/06/11 16:34:28;;;;;;;2.67;0.82;;;31.20;32.00;;;29.67;32.59;101635.13;12218406;19;20019;-83
2022/06/11 16:38:43;;;;;;;0.70;0.60;;;31.10;32.00;;;29.65;32.30;101633.66;12221960;19;20487;-82
2022/06/11 16:42:48;;;;;;;0.68;0.68;;;31.20;31.80;;;29.22;32.30;101579.66;12199394;19;20574;-83
2022/06/11 16:46:56;;;;;;;1.15;0.60;;;31.10;31.90;;;29.48;32.25;101635.69;12216603;19;20498;-82
2022/06/11 16:59:48;;;;;;;1.50;0.80;;;30.90;32.00;;;28.93;32.67;101584.03;12232317;19;20460;-83
2022/06/11 17:03:52;;;;;;;0.60;0.60;;;30.90;32.40;;;29.20;32.60;101649.81;12231553;19;20042;-83
2022/06/11 17:08:00;;;;;;;0.60;0.60;;;30.70;32.10;;;28.66;32.51;101572.03;12227031;19;20023;-82
2022/06/11 17:12:12;;;;;;;1.92;0.73;;;30.60;32.10;;;28.98;32.80;101646.16;12232438;19;20018;-83
2022/06/11 17:16:27;;;;;;;3.40;0.70;;;30.60;31.90;;;28.46;32.54;101585.13;12230077;19;20027;-83
2022/06/11 17:20:52;;;;;;;0.88;0.80;;;30.50;32.20;;;28.82;32.40;101644.47;12229616;19;20023;-82
2022/06/11 17:25:12;;;;;;;0.68;0.50;;;30.40;32.10;;;28.21;32.68;101555.75;12230736;19;20025;-83
2022/06/11 17:29:21;;;;;;;0.70;0.70;;;30.30;32.50;;;28.74;32.56;101647.22;12227593;19;20018;-83
2022/06/11 17:33:26;;;;;;;1.60;0.80;;;30.20;32.10;;;28.40;32.67;101599.28;12229929;19;20397;-85